createdAt,value
2023-05-04T00:03:47.183Z,96472.00
2023-05-04T00:08:49.884Z,96453.56
2023-05-04T00:13:52.693Z,96447.03
2023-05-04T00:18:55.490Z,96466.19
2023-05-04T00:23:57.796Z,96449.28
2023-05-04T00:29:00.502Z,96472.81
2023-05-04T00:34:03.186Z,96439.59
2023-05-04T00:39:05.870Z,96444.66
2023-05-04T00:44:08.634Z,96430.34
2023-05-04T00:49:12.011Z,96443.06
2023-05-04T00:54:19.422Z,96423.38
2023-05-04T00:59:21.998Z,96431.19
2023-05-04T01:04:24.919Z,96431.88
2023-05-04T01:09:38.304Z,96411.38
2023-05-04T01:14:42.162Z,96426.03
2023-05-04T01:19:44.953Z,96426.97
2023-05-04T01:24:47.726Z,96397.38
2023-05-04T01:29:59.911Z,96389.44
2023-05-04T01:35:03.120Z,96368.38
2023-05-04T01:40:06.489Z,96359.41
2023-05-04T01:45:10.166Z,96365.84
2023-05-04T01:50:13.908Z,96324.53
2023-05-04T01:55:16.629Z,96308.72
2023-05-04T02:00:19.503Z,96331.97
2023-05-04T02:05:21.728Z,96324.94
2023-05-04T02:10:24.621Z,96311.63
2023-05-04T02:15:27.132Z,96312.06
2023-05-04T02:20:30.128Z,96302.25
2023-05-04T02:25:32.359Z,96319.41
2023-05-04T02:30:36.145Z,96310.16
2023-05-04T02:35:38.360Z,96315.72
2023-05-04T02:40:41.821Z,96312.03
2023-05-04T02:45:44.489Z,96333.78
2023-05-04T02:50:47.366Z,96317.06
2023-05-04T02:55:50.032Z,96338.63
2023-05-04T03:00:56.808Z,96336.66
2023-05-04T03:05:59.456Z,96337.03
2023-05-04T03:11:01.698Z,96314.31
2023-05-04T03:16:05.952Z,96287.38
2023-05-04T03:21:08.863Z,96281.84
2023-05-04T03:26:11.771Z,96282.16
2023-05-04T03:31:14.555Z,96282.94
2023-05-04T03:36:17.567Z,96277.69
2023-05-04T03:41:20.436Z,96310.84
2023-05-04T03:46:23.187Z,96320.56
2023-05-04T03:51:26.202Z,96304.03
2023-05-04T03:56:28.387Z,96325.41
2023-05-04T04:01:33.673Z,96363.94
2023-05-04T04:06:36.378Z,96360.28
2023-05-04T04:11:39.111Z,96364.59
2023-05-04T04:16:41.974Z,96389.91
2023-05-04T04:21:44.124Z,96370.91
2023-05-04T04:26:46.741Z,96400.34
2023-05-04T04:31:49.409Z,96386.00
2023-05-04T04:36:52.576Z,96393.56
2023-05-04T04:41:54.894Z,96389.94
2023-05-04T04:46:57.593Z,96397.03
2023-05-04T04:52:02.062Z,96405.41
2023-05-04T04:57:04.715Z,96401.03
2023-05-04T05:02:07.055Z,96415.97
2023-05-04T05:07:10.666Z,96414.03
2023-05-04T05:12:13.324Z,96408.75
2023-05-04T05:17:16.355Z,96397.56
2023-05-04T05:22:20.852Z,96399.31
2023-05-04T05:27:23.471Z,96409.69
2023-05-04T05:32:26.301Z,96419.72
2023-05-04T05:37:28.983Z,96411.94
2023-05-04T05:42:31.249Z,96396.81
2023-05-04T05:47:33.775Z,96393.91
2023-05-04T05:52:36.353Z,96404.84
2023-05-04T05:57:38.994Z,96418.69
2023-05-04T06:02:41.357Z,96410.38
2023-05-04T06:07:43.934Z,96390.19
2023-05-04T06:12:46.501Z,96401.63
2023-05-04T06:17:49.992Z,96374.91
2023-05-04T06:22:52.079Z,96392.13
2023-05-04T06:27:54.583Z,96363.28
2023-05-04T06:32:56.668Z,96377.06
2023-05-04T06:37:59.440Z,96385.91
2023-05-04T06:43:01.567Z,96397.34
2023-05-04T06:48:05.096Z,96396.72
2023-05-04T06:53:09.884Z,96396.50
2023-05-04T06:58:12.922Z,96387.94
2023-05-04T07:03:15.467Z,96394.63
2023-05-04T07:08:18.171Z,96387.09
2023-05-04T07:13:21.037Z,96420.53
2023-05-04T07:18:23.729Z,96401.63
2023-05-04T07:23:26.244Z,96402.13
2023-05-04T07:28:28.806Z,96422.19
2023-05-04T07:33:31.032Z,96417.50
2023-05-04T07:38:34.125Z,96435.06
2023-05-04T07:43:36.903Z,96430.25
2023-05-04T07:48:39.194Z,96448.97
2023-05-04T07:53:43.376Z,96446.16
2023-05-04T07:58:47.071Z,96428.44
2023-05-04T08:03:49.523Z,96447.41
2023-05-04T08:08:53.004Z,96446.72
2023-05-04T08:13:55.766Z,96452.50
2023-05-04T08:18:58.488Z,96469.34
2023-05-04T08:24:01.111Z,96468.97
2023-05-04T08:29:10.912Z,96485.16
2023-05-04T08:34:13.576Z,96470.22
2023-05-04T08:39:16.488Z,96464.09
2023-05-04T08:44:19.498Z,96459.72
2023-05-04T08:49:22.945Z,96453.38
2023-05-04T08:54:26.963Z,96447.81
2023-05-04T08:59:32.130Z,96447.59
2023-05-04T09:04:35.225Z,96437.72
2023-05-04T09:09:37.475Z,96434.31
2023-05-04T09:14:41.685Z,96443.81
2023-05-04T09:19:45.170Z,96428.19
2023-05-04T09:24:48.082Z,96433.25
2023-05-04T09:29:55.013Z,96431.22
2023-05-04T09:34:57.724Z,96432.88
2023-05-04T09:40:00.623Z,96408.38
2023-05-04T09:45:06.321Z,96398.59
2023-05-04T09:50:20.949Z,96398.50
2023-05-04T09:55:25.961Z,96402.56
2023-05-04T10:00:28.680Z,96395.88
2023-05-04T10:05:31.437Z,96389.16
2023-05-04T10:10:34.730Z,96394.50
2023-05-04T10:15:47.763Z,96388.09
2023-05-04T10:21:33.502Z,96393.06
2023-05-04T10:27:03.362Z,96397.00
2023-05-04T10:32:16.847Z,96373.72
2023-05-04T10:37:22.573Z,96377.97
2023-05-04T10:42:25.422Z,96379.38
2023-05-04T10:47:34.803Z,96379.34
2023-05-04T10:52:50.818Z,96385.69
2023-05-04T10:57:58.433Z,96383.25
2023-05-04T11:03:07.698Z,96374.81
2023-05-04T11:08:22.228Z,96374.03
2023-05-04T11:13:25.458Z,96386.91
2023-05-04T11:18:37.842Z,96376.91
2023-05-04T11:23:40.697Z,96384.00
2023-05-04T11:28:43.322Z,96383.75
2023-05-04T11:33:50.526Z,96395.16
2023-05-04T11:38:57.875Z,96389.66
2023-05-04T11:44:01.952Z,96397.94
2023-05-04T11:49:05.792Z,96400.59
2023-05-04T11:54:08.344Z,96403.31
2023-05-04T11:59:11.169Z,96406.63
2023-05-04T12:04:14.713Z,96396.56
2023-05-04T12:09:17.317Z,96416.81
2023-05-04T12:14:21.080Z,96402.81
2023-05-04T12:19:24.040Z,96402.41
2023-05-04T12:24:27.892Z,96407.91
2023-05-04T12:29:31.093Z,96427.03
2023-05-04T12:34:33.885Z,96416.28
2023-05-04T12:39:35.983Z,96430.47
2023-05-04T12:44:38.527Z,96416.03
2023-05-04T12:49:41.167Z,96419.38
2023-05-04T12:54:43.769Z,96421.44
2023-05-04T12:59:47.503Z,96423.88
2023-05-04T13:04:50.117Z,96450.25
2023-05-04T13:09:52.740Z,96438.69
2023-05-04T13:14:57.088Z,96463.88
2023-05-04T13:20:00.160Z,96441.75
2023-05-04T13:25:02.282Z,96454.94
2023-05-04T13:30:05.138Z,96456.44
2023-05-04T13:35:08.494Z,96460.66
2023-05-04T13:40:12.379Z,96471.41
2023-05-04T13:45:15.012Z,96475.38
2023-05-04T13:50:17.568Z,96471.56
2023-05-04T13:55:20.390Z,96485.19
2023-05-04T14:00:23.380Z,96483.22
2023-05-04T14:05:25.925Z,96463.72
2023-05-04T14:10:28.381Z,96488.84
2023-05-04T14:15:32.515Z,96470.50
2023-05-04T14:20:35.056Z,96479.13
2023-05-04T14:25:37.868Z,96496.84
2023-05-04T14:30:40.415Z,96476.31
2023-05-04T14:35:45.074Z,96507.50
2023-05-04T14:40:49.665Z,96499.47
2023-05-04T14:45:53.329Z,96499.28
2023-05-04T14:50:56.954Z,96521.69
2023-05-04T14:55:59.031Z,96516.63
2023-05-04T15:01:01.594Z,96548.31
2023-05-04T15:06:04.301Z,96525.28
2023-05-04T15:11:06.885Z,96526.50
2023-05-04T15:16:08.973Z,96541.03
2023-05-04T15:28:02.482Z,96549.06
2023-05-04T15:33:05.903Z,96538.13
2023-05-04T15:38:08.458Z,96529.34
2023-05-04T15:43:11.103Z,96518.75
2023-05-04T15:48:13.834Z,96524.44
2023-05-04T15:53:16.196Z,96518.72
2023-05-04T15:58:19.138Z,96536.81
2023-05-04T16:03:23.835Z,96534.28
2023-05-04T16:08:26.588Z,96507.25
2023-05-04T16:13:29.426Z,96525.06
2023-05-04T16:18:32.199Z,96512.50
2023-05-04T16:23:34.880Z,96548.25
2023-05-04T16:28:37.745Z,96514.66
2023-05-04T16:33:41.637Z,96519.03
2023-05-04T16:38:44.442Z,96528.25
2023-05-04T16:43:49.216Z,96562.25
2023-05-04T16:48:52.012Z,96539.50
2023-05-04T16:53:54.812Z,96542.41
2023-05-04T16:58:57.802Z,96555.13
2023-05-04T17:04:00.728Z,96554.22
2023-05-04T17:09:04.373Z,96569.38
2023-05-04T17:14:07.152Z,96564.13
2023-05-04T17:19:11.273Z,96569.88
2023-05-04T17:24:14.160Z,96544.38
2023-05-04T17:29:16.923Z,96562.47
2023-05-04T17:34:19.228Z,96566.81
2023-05-04T17:39:22.100Z,96563.88
2023-05-04T17:44:25.110Z,96596.56
2023-05-04T17:49:27.515Z,96578.69
2023-05-04T17:54:30.198Z,96563.09
2023-05-04T17:59:32.796Z,96603.94
2023-05-04T18:04:37.761Z,96608.94
2023-05-04T18:09:39.964Z,96634.03
2023-05-04T18:14:42.555Z,96616.53
2023-05-04T18:19:45.131Z,96635.78
2023-05-04T18:24:49.920Z,96633.06
2023-05-04T18:29:53.007Z,96632.16
2023-05-04T18:34:58.111Z,96600.41
2023-05-04T18:40:01.186Z,96654.03
2023-05-04T18:45:04.114Z,96647.84
2023-05-04T18:50:07.727Z,96621.53
2023-05-04T18:55:10.743Z,96625.84
2023-05-04T19:00:14.326Z,96647.16
2023-05-04T19:05:17.183Z,96656.78
2023-05-04T19:10:19.907Z,96635.50
2023-05-04T19:15:23.357Z,96650.28
2023-05-04T19:20:26.542Z,96634.31
2023-05-04T19:25:34.845Z,96630.00
2023-05-04T19:30:39.761Z,96650.56
2023-05-04T19:35:42.451Z,96665.94
2023-05-04T19:40:45.086Z,96647.34
2023-05-04T19:45:47.941Z,96654.59
2023-05-04T19:50:50.647Z,96662.78
2023-05-04T19:55:52.972Z,96639.28
2023-05-04T20:00:58.364Z,96673.19
2023-05-04T20:06:03.833Z,96658.34
2023-05-04T20:11:09.110Z,96656.81
2023-05-04T20:16:16.198Z,96665.25
2023-05-04T20:21:19.144Z,96670.88
2023-05-04T20:26:28.166Z,96671.34
2023-05-04T20:31:31.128Z,96688.88
2023-05-04T20:36:34.657Z,96656.31
2023-05-04T20:41:38.330Z,96667.22
2023-05-04T20:46:44.594Z,96678.06
2023-05-04T20:51:50.891Z,96683.84
2023-05-04T20:56:56.536Z,96665.56
2023-05-04T21:01:59.248Z,96663.75
2023-05-04T21:07:01.651Z,96675.63
2023-05-04T21:12:04.677Z,96681.53
2023-05-04T21:17:07.573Z,96681.22
2023-05-04T21:22:10.246Z,96675.81
2023-05-04T21:27:13.518Z,96653.09
2023-05-04T21:32:15.764Z,96690.00
2023-05-04T21:37:18.569Z,96679.69
2023-05-04T21:42:21.219Z,96690.75
2023-05-04T21:47:25.167Z,96676.72
2023-05-04T21:52:28.053Z,96685.78
2023-05-04T21:57:33.511Z,96694.91
2023-05-04T22:02:36.393Z,96647.03
2023-05-04T22:07:39.335Z,96679.16
2023-05-04T22:12:42.078Z,96687.31
2023-05-04T22:17:44.741Z,96694.00
2023-05-04T22:22:47.499Z,96651.00
2023-05-04T22:27:50.489Z,96667.16
2023-05-04T22:32:54.311Z,96670.38
2023-05-04T22:37:57.340Z,96658.78
2023-05-04T22:43:00.015Z,96640.59
2023-05-04T22:48:03.262Z,96651.69
2023-05-04T22:53:05.783Z,96661.72
2023-05-04T22:58:08.483Z,96653.94
2023-05-04T23:03:11.298Z,96660.53
2023-05-04T23:08:14.228Z,96655.81
2023-05-04T23:13:17.040Z,96620.50
2023-05-04T23:18:19.573Z,96631.66
2023-05-04T23:23:22.763Z,96620.13
2023-05-04T23:28:25.448Z,96612.63
2023-05-04T23:33:28.212Z,96605.59
2023-05-04T23:38:30.368Z,96627.72
2023-05-04T23:43:33.009Z,96616.66
2023-05-04T23:48:35.789Z,96615.75
2023-05-04T23:53:38.566Z,96591.78
2023-05-04T23:58:41.761Z,96610.06
